sensor_id;sensor_type;location;lat;lon;timestamp;P1;durP1;ratioP1;P2;durP2;ratioP2
2928;SDS011;1474;51.460;7.150;2023-03-24T00:00:10;1.73;;;1.05;;
2928;SDS011;1474;51.460;7.150;2023-03-24T00:02:38;2.28;;;1.25;;
2928;SDS011;1474;51.460;7.150;2023-03-24T00:05:10;1.52;;;0.95;;
2928;SDS011;1474;51.460;7.150;2023-03-24T00:07:37;8.07;;;1.20;;
2928;SDS011;1474;51.460;7.150;2023-03-24T00:10:04;2.55;;;1.20;;
2928;SDS011;1474;51.460;7.150;2023-03-24T00:12:33;2.28;;;1.30;;
2928;SDS011;1474;51.460;7.150;2023-03-24T00:15:06;0.93;;;0.93;;
2928;SDS011;1474;51.460;7.150;2023-03-24T00:17:34;2.08;;;1.00;;
2928;SDS011;1474;51.460;7.150;2023-03-24T00:20:07;3.10;;;1.35;;
2928;SDS011;1474;51.460;7.150;2023-03-24T00:22:49;4.93;;;1.20;;
2928;SDS011;1474;51.460;7.150;2023-03-24T00:25:22;2.17;;;1.10;;
2928;SDS011;1474;51.460;7.150;2023-03-24T00:27:52;3.67;;;1.48;;
2928;SDS011;1474;51.460;7.150;2023-03-24T00:30:18;2.30;;;0.80;;
2928;SDS011;1474;51.460;7.150;2023-03-24T00:32:44;3.60;;;1.23;;
2928;SDS011;1474;51.460;7.150;2023-03-24T00:35:12;1.20;;;1.10;;
2928;SDS011;1474;51.460;7.150;2023-03-24T00:37:40;1.87;;;1.60;;
2928;SDS011;1474;51.460;7.150;2023-03-24T00:40:11;5.07;;;1.20;;
2928;SDS011;1474;51.460;7.150;2023-03-24T00:42:41;1.23;;;1.13;;
2928;SDS011;1474;51.460;7.150;2023-03-24T00:45:16;4.20;;;1.33;;
2928;SDS011;1474;51.460;7.150;2023-03-24T00:47:43;1.98;;;1.08;;
2928;SDS011;1474;51.460;7.150;2023-03-24T00:50:14;1.10;;;1.00;;
2928;SDS011;1474;51.460;7.150;2023-03-24T00:52:41;1.08;;;0.98;;
2928;SDS011;1474;51.460;7.150;2023-03-24T00:55:12;3.58;;;1.10;;
2928;SDS011;1474;51.460;7.150;2023-03-24T00:57:39;2.88;;;1.10;;
2928;SDS011;1474;51.460;7.150;2023-03-24T01:00:13;1.90;;;1.30;;
2928;SDS011;1474;51.460;7.150;2023-03-24T01:05:17;2.53;;;1.10;;
2928;SDS011;1474;51.460;7.150;2023-03-24T01:07:45;3.90;;;1.20;;
2928;SDS011;1474;51.460;7.150;2023-03-24T01:10:16;1.20;;;0.80;;
2928;SDS011;1474;51.460;7.150;2023-03-24T01:12:43;2.88;;;1.30;;
2928;SDS011;1474;51.460;7.150;2023-03-24T01:15:14;2.40;;;1.17;;
2928;SDS011;1474;51.460;7.150;2023-03-24T01:17:41;3.75;;;1.25;;
2928;SDS011;1474;51.460;7.150;2023-03-24T01:20:07;1.63;;;1.27;;
2928;SDS011;1474;51.460;7.150;2023-03-24T01:22:35;3.70;;;1.50;;
2928;SDS011;1474;51.460;7.150;2023-03-24T01:25:06;1.23;;;1.05;;
2928;SDS011;1474;51.460;7.150;2023-03-24T01:27:36;1.95;;;1.25;;
2928;SDS011;1474;51.460;7.150;2023-03-24T01:30:05;2.92;;;1.48;;
2928;SDS011;1474;51.460;7.150;2023-03-24T01:32:31;2.27;;;1.50;;
2928;SDS011;1474;51.460;7.150;2023-03-24T01:34:58;2.20;;;1.50;;
2928;SDS011;1474;51.460;7.150;2023-03-24T01:37:23;3.42;;;1.25;;
2928;SDS011;1474;51.460;7.150;2023-03-24T01:39:49;2.80;;;1.35;;
2928;SDS011;1474;51.460;7.150;2023-03-24T01:42:19;1.65;;;1.02;;
2928;SDS011;1474;51.460;7.150;2023-03-24T01:44:48;2.95;;;1.33;;
2928;SDS011;1474;51.460;7.150;2023-03-24T01:49:45;1.25;;;1.15;;
2928;SDS011;1474;51.460;7.150;2023-03-24T01:52:21;2.78;;;1.55;;
2928;SDS011;1474;51.460;7.150;2023-03-24T01:54:51;4.35;;;1.70;;
2928;SDS011;1474;51.460;7.150;2023-03-24T01:57:30;2.33;;;2.13;;
2928;SDS011;1474;51.460;7.150;2023-03-24T02:00:01;2.22;;;1.80;;
2928;SDS011;1474;51.460;7.150;2023-03-24T02:02:32;2.08;;;1.55;;
2928;SDS011;1474;51.460;7.150;2023-03-24T02:05:01;1.75;;;1.20;;
2928;SDS011;1474;51.460;7.150;2023-03-24T02:08:15;2.67;;;1.88;;
2928;SDS011;1474;51.460;7.150;2023-03-24T02:10:24;3.17;;;1.65;;
2928;SDS011;1474;51.460;7.150;2023-03-24T02:12:50;1.88;;;1.30;;
2928;SDS011;1474;51.460;7.150;2023-03-24T02:15:16;2.88;;;1.38;;
2928;SDS011;1474;51.460;7.150;2023-03-24T02:26:01;2.90;;;2.47;;
2928;SDS011;1474;51.460;7.150;2023-03-24T02:28:51;2.75;;;1.80;;
2928;SDS011;1474;51.460;7.150;2023-03-24T02:45:26;2.05;;;1.60;;
2928;SDS011;1474;51.460;7.150;2023-03-24T02:51:00;2.55;;;1.60;;
2928;SDS011;1474;51.460;7.150;2023-03-24T02:53:30;4.10;;;2.13;;
2928;SDS011;1474;51.460;7.150;2023-03-24T02:56:30;2.17;;;1.42;;
2928;SDS011;1474;51.460;7.150;2023-03-24T02:59:03;2.03;;;1.67;;
2928;SDS011;1474;51.460;7.150;2023-03-24T03:04:23;2.47;;;2.00;;
2928;SDS011;1474;51.460;7.150;2023-03-24T03:06:58;4.70;;;1.73;;
2928;SDS011;1474;51.460;7.150;2023-03-24T03:09:30;3.40;;;2.67;;
2928;SDS011;1474;51.460;7.150;2023-03-24T03:11:58;2.63;;;1.65;;
2928;SDS011;1474;51.460;7.150;2023-03-24T03:14:30;2.20;;;2.00;;
2928;SDS011;1474;51.460;7.150;2023-03-24T03:16:58;3.03;;;2.28;;
2928;SDS011;1474;51.460;7.150;2023-03-24T03:19:37;2.42;;;1.95;;
2928;SDS011;1474;51.460;7.150;2023-03-24T03:22:07;3.38;;;1.88;;
2928;SDS011;1474;51.460;7.150;2023-03-24T03:24:40;2.95;;;2.25;;
2928;SDS011;1474;51.460;7.150;2023-03-24T03:27:13;2.88;;;2.10;;
2928;SDS011;1474;51.460;7.150;2023-03-24T03:29:45;2.83;;;2.22;;
2928;SDS011;1474;51.460;7.150;2023-03-24T03:32:17;2.35;;;1.70;;
2928;SDS011;1474;51.460;7.150;2023-03-24T03:35:13;2.78;;;2.15;;
2928;SDS011;1474;51.460;7.150;2023-03-24T03:42:57;2.95;;;1.92;;
2928;SDS011;1474;51.460;7.150;2023-03-24T03:45:23;3.35;;;2.50;;
2928;SDS011;1474;51.460;7.150;2023-03-24T03:47:49;2.97;;;2.30;;
2928;SDS011;1474;51.460;7.150;2023-03-24T03:50:15;4.13;;;2.05;;
2928;SDS011;1474;51.460;7.150;2023-03-24T03:52:40;1.90;;;1.70;;
2928;SDS011;1474;51.460;7.150;2023-03-24T03:55:08;3.10;;;1.73;;
2928;SDS011;1474;51.460;7.150;2023-03-24T03:57:35;2.53;;;1.90;;
2928;SDS011;1474;51.460;7.150;2023-03-24T04:00:03;4.70;;;2.47;;
2928;SDS011;1474;51.460;7.150;2023-03-24T04:05:15;3.08;;;1.80;;
2928;SDS011;1474;51.460;7.150;2023-03-24T04:22:01;2.08;;;1.65;;
2928;SDS011;1474;51.460;7.150;2023-03-24T04:30:04;2.75;;;1.75;;
2928;SDS011;1474;51.460;7.150;2023-03-24T04:32:55;1.85;;;1.45;;
2928;SDS011;1474;51.460;7.150;2023-03-24T04:37:56;2.33;;;1.77;;
2928;SDS011;1474;51.460;7.150;2023-03-24T04:40:33;2.88;;;1.67;;
2928;SDS011;1474;51.460;7.150;2023-03-24T04:43:04;4.57;;;1.48;;
2928;SDS011;1474;51.460;7.150;2023-03-24T04:45:32;2.70;;;1.50;;
2928;SDS011;1474;51.460;7.150;2023-03-24T04:48:00;2.30;;;1.25;;
2928;SDS011;1474;51.460;7.150;2023-03-24T04:50:29;2.10;;;1.27;;
2928;SDS011;1474;51.460;7.150;2023-03-24T04:53:08;1.55;;;1.27;;
2928;SDS011;1474;51.460;7.150;2023-03-24T04:58:22;2.92;;;1.85;;
2928;SDS011;1474;51.460;7.150;2023-03-24T05:00:49;2.38;;;1.58;;
2928;SDS011;1474;51.460;7.150;2023-03-24T05:03:16;2.03;;;1.85;;
2928;SDS011;1474;51.460;7.150;2023-03-24T05:05:43;2.72;;;1.95;;
2928;SDS011;1474;51.460;7.150;2023-03-24T05:08:10;3.17;;;2.03;;
2928;SDS011;1474;51.460;7.150;2023-03-24T05:10:36;3.28;;;1.77;;
2928;SDS011;1474;51.460;7.150;2023-03-24T05:13:02;3.22;;;1.45;;
2928;SDS011;1474;51.460;7.150;2023-03-24T05:15:29;2.63;;;1.60;;
2928;SDS011;1474;51.460;7.150;2023-03-24T05:17:55;2.92;;;1.70;;
2928;SDS011;1474;51.460;7.150;2023-03-24T05:20:21;3.95;;;1.63;;
2928;SDS011;1474;51.460;7.150;2023-03-24T05:22:47;1.73;;;1.45;;
2928;SDS011;1474;51.460;7.150;2023-03-24T05:25:13;1.58;;;1.10;;
2928;SDS011;1474;51.460;7.150;2023-03-24T05:27:40;2.03;;;1.55;;
2928;SDS011;1474;51.460;7.150;2023-03-24T05:30:07;2.58;;;1.88;;
2928;SDS011;1474;51.460;7.150;2023-03-24T05:32:33;2.83;;;1.55;;
2928;SDS011;1474;51.460;7.150;2023-03-24T05:34:58;3.95;;;1.70;;
2928;SDS011;1474;51.460;7.150;2023-03-24T05:37:24;1.48;;;1.30;;
2928;SDS011;1474;51.460;7.150;2023-03-24T05:39:51;2.22;;;1.42;;
2928;SDS011;1474;51.460;7.150;2023-03-24T05:42:17;1.88;;;1.10;;
2928;SDS011;1474;51.460;7.150;2023-03-24T05:44:42;1.75;;;1.25;;
2928;SDS011;1474;51.460;7.150;2023-03-24T05:47:09;1.40;;;1.20;;
2928;SDS011;1474;51.460;7.150;2023-03-24T05:49:37;2.78;;;1.30;;
2928;SDS011;1474;51.460;7.150;2023-03-24T05:52:03;2.05;;;1.10;;
2928;SDS011;1474;51.460;7.150;2023-03-24T05:54:29;3.33;;;1.38;;
2928;SDS011;1474;51.460;7.150;2023-03-24T05:56:58;1.40;;;1.30;;
2928;SDS011;1474;51.460;7.150;2023-03-24T05:59:23;2.63;;;1.40;;
2928;SDS011;1474;51.460;7.150;2023-03-24T06:01:49;3.38;;;1.58;;
2928;SDS011;1474;51.460;7.150;2023-03-24T06:04:17;3.42;;;1.60;;
2928;SDS011;1474;51.460;7.150;2023-03-24T06:06:44;2.03;;;1.27;;
2928;SDS011;1474;51.460;7.150;2023-03-24T06:09:10;2.88;;;1.60;;
2928;SDS011;1474;51.460;7.150;2023-03-24T06:11:38;4.28;;;2.20;;
2928;SDS011;1474;51.460;7.150;2023-03-24T06:14:04;2.55;;;1.80;;
2928;SDS011;1474;51.460;7.150;2023-03-24T06:16:31;2.92;;;1.52;;
2928;SDS011;1474;51.460;7.150;2023-03-24T06:18:58;6.28;;;1.63;;
2928;SDS011;1474;51.460;7.150;2023-03-24T06:21:24;7.35;;;1.45;;
2928;SDS011;1474;51.460;7.150;2023-03-24T06:23:54;6.43;;;1.20;;
2928;SDS011;1474;51.460;7.150;2023-03-24T06:26:21;3.38;;;1.17;;
2928;SDS011;1474;51.460;7.150;2023-03-24T06:28:47;3.17;;;1.50;;
2928;SDS011;1474;51.460;7.150;2023-03-24T06:31:15;7.60;;;2.03;;
2928;SDS011;1474;51.460;7.150;2023-03-24T06:33:48;3.17;;;1.20;;
2928;SDS011;1474;51.460;7.150;2023-03-24T06:36:15;2.70;;;1.15;;
2928;SDS011;1474;51.460;7.150;2023-03-24T06:38:40;1.98;;;1.00;;
2928;SDS011;1474;51.460;7.150;2023-03-24T06:41:06;3.10;;;1.30;;
2928;SDS011;1474;51.460;7.150;2023-03-24T06:43:32;3.97;;;1.30;;
2928;SDS011;1474;51.460;7.150;2023-03-24T06:45:58;3.83;;;1.23;;
2928;SDS011;1474;51.460;7.150;2023-03-24T06:48:25;1.58;;;1.10;;
2928;SDS011;1474;51.460;7.150;2023-03-24T06:50:51;4.80;;;1.20;;
2928;SDS011;1474;51.460;7.150;2023-03-24T06:53:18;2.42;;;1.10;;
2928;SDS011;1474;51.460;7.150;2023-03-24T06:55:45;3.25;;;0.95;;
2928;SDS011;1474;51.460;7.150;2023-03-24T06:58:12;2.10;;;1.02;;
2928;SDS011;1474;51.460;7.150;2023-03-24T07:00:39;1.70;;;1.13;;
2928;SDS011;1474;51.460;7.150;2023-03-24T07:03:05;2.03;;;1.05;;
2928;SDS011;1474;51.460;7.150;2023-03-24T07:05:32;3.50;;;0.90;;
2928;SDS011;1474;51.460;7.150;2023-03-24T07:08:02;2.20;;;1.20;;
2928;SDS011;1474;51.460;7.150;2023-03-24T07:10:28;3.63;;;1.23;;
2928;SDS011;1474;51.460;7.150;2023-03-24T07:12:54;3.70;;;1.90;;
2928;SDS011;1474;51.460;7.150;2023-03-24T07:15:20;5.45;;;1.27;;
2928;SDS011;1474;51.460;7.150;2023-03-24T07:17:50;5.70;;;1.63;;
2928;SDS011;1474;51.460;7.150;2023-03-24T07:20:16;4.22;;;1.38;;
2928;SDS011;1474;51.460;7.150;2023-03-24T07:22:42;5.53;;;1.30;;
2928;SDS011;1474;51.460;7.150;2023-03-24T07:25:07;7.75;;;1.50;;
2928;SDS011;1474;51.460;7.150;2023-03-24T07:27:33;3.15;;;1.05;;
2928;SDS011;1474;51.460;7.150;2023-03-24T07:30:00;4.65;;;1.50;;
2928;SDS011;1474;51.460;7.150;2023-03-24T07:32:28;4.80;;;1.23;;
2928;SDS011;1474;51.460;7.150;2023-03-24T07:34:58;3.42;;;1.00;;
2928;SDS011;1474;51.460;7.150;2023-03-24T07:37:25;6.00;;;1.48;;
2928;SDS011;1474;51.460;7.150;2023-03-24T07:39:50;2.65;;;1.00;;
2928;SDS011;1474;51.460;7.150;2023-03-24T07:42:16;2.33;;;0.75;;
2928;SDS011;1474;51.460;7.150;2023-03-24T07:44:42;4.75;;;1.20;;
2928;SDS011;1474;51.460;7.150;2023-03-24T07:47:08;1.85;;;1.20;;
2928;SDS011;1474;51.460;7.150;2023-03-24T07:52:04;2.55;;;0.75;;
2928;SDS011;1474;51.460;7.150;2023-03-24T07:54:30;2.00;;;0.68;;
2928;SDS011;1474;51.460;7.150;2023-03-24T07:56:57;5.82;;;1.25;;
2928;SDS011;1474;51.460;7.150;2023-03-24T07:59:23;7.38;;;1.55;;
2928;SDS011;1474;51.460;7.150;2023-03-24T08:01:49;4.05;;;1.17;;
2928;SDS011;1474;51.460;7.150;2023-03-24T08:04:15;6.30;;;0.77;;
2928;SDS011;1474;51.460;7.150;2023-03-24T08:06:43;4.63;;;0.75;;
2928;SDS011;1474;51.460;7.150;2023-03-24T08:09:09;5.05;;;1.10;;
2928;SDS011;1474;51.460;7.150;2023-03-24T08:11:36;6.57;;;1.20;;
2928;SDS011;1474;51.460;7.150;2023-03-24T08:14:02;3.60;;;0.82;;
2928;SDS011;1474;51.460;7.150;2023-03-24T08:16:28;5.00;;;0.68;;
2928;SDS011;1474;51.460;7.150;2023-03-24T08:18:54;4.32;;;0.90;;
2928;SDS011;1474;51.460;7.150;2023-03-24T08:21:22;5.10;;;0.70;;
2928;SDS011;1474;51.460;7.150;2023-03-24T08:23:48;4.13;;;0.70;;
2928;SDS011;1474;51.460;7.150;2023-03-24T08:26:14;0.93;;;0.30;;
2928;SDS011;1474;51.460;7.150;2023-03-24T08:28:40;2.63;;;0.60;;
2928;SDS011;1474;51.460;7.150;2023-03-24T08:31:06;3.08;;;0.60;;
2928;SDS011;1474;51.460;7.150;2023-03-24T08:33:32;2.97;;;0.60;;
2928;SDS011;1474;51.460;7.150;2023-03-24T08:35:58;4.22;;;0.77;;
2928;SDS011;1474;51.460;7.150;2023-03-24T08:38:24;4.47;;;0.50;;
2928;SDS011;1474;51.460;7.150;2023-03-24T08:40:57;4.28;;;1.05;;
2928;SDS011;1474;51.460;7.150;2023-03-24T08:43:26;4.25;;;0.95;;
2928;SDS011;1474;51.460;7.150;2023-03-24T08:45:53;3.30;;;1.45;;
2928;SDS011;1474;51.460;7.150;2023-03-24T08:48:19;1.02;;;0.70;;
2928;SDS011;1474;51.460;7.150;2023-03-24T08:50:46;2.58;;;1.08;;
2928;SDS011;1474;51.460;7.150;2023-03-24T08:53:12;3.75;;;1.10;;
2928;SDS011;1474;51.460;7.150;2023-03-24T08:55:38;4.05;;;1.10;;
2928;SDS011;1474;51.460;7.150;2023-03-24T08:58:07;5.78;;;1.30;;
2928;SDS011;1474;51.460;7.150;2023-03-24T09:00:36;8.55;;;1.77;;
2928;SDS011;1474;51.460;7.150;2023-03-24T09:03:11;8.57;;;1.60;;
2928;SDS011;1474;51.460;7.150;2023-03-24T09:05:42;1.27;;;0.57;;
2928;SDS011;1474;51.460;7.150;2023-03-24T09:08:08;4.35;;;0.90;;
2928;SDS011;1474;51.460;7.150;2023-03-24T09:10:35;3.30;;;1.23;;
2928;SDS011;1474;51.460;7.150;2023-03-24T09:13:01;4.63;;;0.73;;
2928;SDS011;1474;51.460;7.150;2023-03-24T09:15:31;3.85;;;1.02;;
2928;SDS011;1474;51.460;7.150;2023-03-24T09:17:57;2.17;;;1.05;;
2928;SDS011;1474;51.460;7.150;2023-03-24T09:20:23;2.80;;;0.90;;
2928;SDS011;1474;51.460;7.150;2023-03-24T09:22:49;5.45;;;1.45;;
2928;SDS011;1474;51.460;7.150;2023-03-24T09:25:16;2.38;;;0.93;;
2928;SDS011;1474;51.460;7.150;2023-03-24T09:27:43;4.35;;;0.80;;
2928;SDS011;1474;51.460;7.150;2023-03-24T09:30:10;2.92;;;1.00;;
2928;SDS011;1474;51.460;7.150;2023-03-24T09:32:38;4.18;;;1.17;;
2928;SDS011;1474;51.460;7.150;2023-03-24T09:35:03;1.83;;;0.57;;
2928;SDS011;1474;51.460;7.150;2023-03-24T09:37:33;4.00;;;1.42;;
2928;SDS011;1474;51.460;7.150;2023-03-24T09:39:59;8.65;;;1.00;;
2928;SDS011;1474;51.460;7.150;2023-03-24T09:42:26;5.88;;;1.10;;
2928;SDS011;1474;51.460;7.150;2023-03-24T09:44:57;3.70;;;1.52;;
2928;SDS011;1474;51.460;7.150;2023-03-24T09:47:27;2.03;;;1.50;;
2928;SDS011;1474;51.460;7.150;2023-03-24T09:49:54;4.75;;;1.02;;
2928;SDS011;1474;51.460;7.150;2023-03-24T09:52:26;3.85;;;1.50;;
2928;SDS011;1474;51.460;7.150;2023-03-24T09:55:02;5.03;;;1.45;;
2928;SDS011;1474;51.460;7.150;2023-03-24T09:57:31;3.47;;;1.35;;
2928;SDS011;1474;51.460;7.150;2023-03-24T10:00:02;4.88;;;0.93;;
2928;SDS011;1474;51.460;7.150;2023-03-24T10:02:43;4.38;;;0.80;;
2928;SDS011;1474;51.460;7.150;2023-03-24T10:05:13;4.00;;;1.02;;
2928;SDS011;1474;51.460;7.150;2023-03-24T10:08:24;3.63;;;1.00;;
2928;SDS011;1474;51.460;7.150;2023-03-24T10:10:42;5.78;;;1.30;;
2928;SDS011;1474;51.460;7.150;2023-03-24T10:16:40;2.72;;;1.13;;
2928;SDS011;1474;51.460;7.150;2023-03-24T10:19:23;5.15;;;1.38;;
2928;SDS011;1474;51.460;7.150;2023-03-24T10:22:23;3.10;;;0.93;;
2928;SDS011;1474;51.460;7.150;2023-03-24T10:25:17;5.20;;;1.35;;
2928;SDS011;1474;51.460;7.150;2023-03-24T10:27:46;7.63;;;1.40;;
2928;SDS011;1474;51.460;7.150;2023-03-24T10:30:21;2.15;;;1.00;;
2928;SDS011;1474;51.460;7.150;2023-03-24T10:32:51;5.05;;;1.23;;
2928;SDS011;1474;51.460;7.150;2023-03-24T10:35:23;10.00;;;1.92;;
2928;SDS011;1474;51.460;7.150;2023-03-24T10:37:51;8.90;;;1.35;;
2928;SDS011;1474;51.460;7.150;2023-03-24T10:40:22;5.20;;;1.38;;
2928;SDS011;1474;51.460;7.150;2023-03-24T10:42:52;4.22;;;0.93;;
2928;SDS011;1474;51.460;7.150;2023-03-24T10:45:27;5.30;;;0.93;;
2928;SDS011;1474;51.460;7.150;2023-03-24T10:47:57;2.55;;;0.90;;
2928;SDS011;1474;51.460;7.150;2023-03-24T10:50:29;6.05;;;0.93;;
2928;SDS011;1474;51.460;7.150;2023-03-24T10:52:56;4.70;;;1.70;;
2928;SDS011;1474;51.460;7.150;2023-03-24T10:55:23;4.15;;;0.55;;
2928;SDS011;1474;51.460;7.150;2023-03-24T11:00:34;2.50;;;0.85;;
2928;SDS011;1474;51.460;7.150;2023-03-24T11:03:10;2.85;;;1.10;;
2928;SDS011;1474;51.460;7.150;2023-03-24T11:05:38;4.63;;;0.82;;
2928;SDS011;1474;51.460;7.150;2023-03-24T11:08:26;4.15;;;1.10;;
2928;SDS011;1474;51.460;7.150;2023-03-24T11:10:52;2.58;;;0.80;;
2928;SDS011;1474;51.460;7.150;2023-03-24T11:13:29;4.82;;;1.08;;
2928;SDS011;1474;51.460;7.150;2023-03-24T11:16:04;6.35;;;1.02;;
2928;SDS011;1474;51.460;7.150;2023-03-24T11:18:53;4.63;;;1.13;;
2928;SDS011;1474;51.460;7.150;2023-03-24T11:21:20;4.88;;;0.85;;
2928;SDS011;1474;51.460;7.150;2023-03-24T11:23:46;3.38;;;1.13;;
2928;SDS011;1474;51.460;7.150;2023-03-24T11:28:41;4.60;;;0.90;;
2928;SDS011;1474;51.460;7.150;2023-03-24T11:31:20;5.38;;;0.90;;
2928;SDS011;1474;51.460;7.150;2023-03-24T11:39:21;2.30;;;0.73;;
2928;SDS011;1474;51.460;7.150;2023-03-24T11:44:29;5.63;;;1.02;;
2928;SDS011;1474;51.460;7.150;2023-03-24T11:47:08;1.63;;;0.63;;
2928;SDS011;1474;51.460;7.150;2023-03-24T11:49:39;3.47;;;1.00;;
2928;SDS011;1474;51.460;7.150;2023-03-24T11:52:32;5.00;;;0.82;;
2928;SDS011;1474;51.460;7.150;2023-03-24T11:55:16;3.13;;;1.02;;
2928;SDS011;1474;51.460;7.150;2023-03-24T11:58:00;3.10;;;0.85;;
2928;SDS011;1474;51.460;7.150;2023-03-24T12:00:40;2.28;;;0.85;;
2928;SDS011;1474;51.460;7.150;2023-03-24T12:03:38;3.30;;;1.20;;
2928;SDS011;1474;51.460;7.150;2023-03-24T12:06:22;2.20;;;0.90;;
2928;SDS011;1474;51.460;7.150;2023-03-24T12:08:57;1.75;;;0.93;;
2928;SDS011;1474;51.460;7.150;2023-03-24T12:17:31;3.17;;;1.00;;
2928;SDS011;1474;51.460;7.150;2023-03-24T12:20:20;7.50;;;1.02;;
2928;SDS011;1474;51.460;7.150;2023-03-24T12:26:04;1.45;;;0.60;;
2928;SDS011;1474;51.460;7.150;2023-03-24T12:37:06;7.20;;;1.17;;
2928;SDS011;1474;51.460;7.150;2023-03-24T12:42:42;1.70;;;0.75;;
2928;SDS011;1474;51.460;7.150;2023-03-24T12:45:35;6.03;;;1.40;;
2928;SDS011;1474;51.460;7.150;2023-03-24T12:56:20;5.68;;;1.08;;
2928;SDS011;1474;51.460;7.150;2023-03-24T12:59:12;6.72;;;1.38;;
2928;SDS011;1474;51.460;7.150;2023-03-24T13:01:45;2.05;;;0.90;;
2928;SDS011;1474;51.460;7.150;2023-03-24T13:04:20;4.28;;;1.23;;
2928;SDS011;1474;51.460;7.150;2023-03-24T13:07:09;3.45;;;1.00;;
2928;SDS011;1474;51.460;7.150;2023-03-24T13:09:54;3.15;;;0.80;;
2928;SDS011;1474;51.460;7.150;2023-03-24T13:12:26;4.60;;;0.77;;
2928;SDS011;1474;51.460;7.150;2023-03-24T13:15:19;4.00;;;1.02;;
2928;SDS011;1474;51.460;7.150;2023-03-24T13:20:34;1.23;;;0.60;;
2928;SDS011;1474;51.460;7.150;2023-03-24T13:26:19;2.05;;;0.85;;
2928;SDS011;1474;51.460;7.150;2023-03-24T13:37:36;7.25;;;0.85;;
2928;SDS011;1474;51.460;7.150;2023-03-24T13:40:18;2.90;;;0.63;;
2928;SDS011;1474;51.460;7.150;2023-03-24T13:42:48;4.68;;;1.30;;
2928;SDS011;1474;51.460;7.150;2023-03-24T13:48:16;1.02;;;0.60;;
2928;SDS011;1474;51.460;7.150;2023-03-24T13:56:23;3.80;;;1.10;;
2928;SDS011;1474;51.460;7.150;2023-03-24T14:01:42;1.05;;;0.47;;
2928;SDS011;1474;51.460;7.150;2023-03-24T14:09:14;4.70;;;0.93;;
2928;SDS011;1474;51.460;7.150;2023-03-24T14:12:36;4.18;;;1.77;;
2928;SDS011;1474;51.460;7.150;2023-03-24T14:17:46;2.45;;;0.50;;
2928;SDS011;1474;51.460;7.150;2023-03-24T14:20:24;3.60;;;0.75;;
2928;SDS011;1474;51.460;7.150;2023-03-24T14:22:52;4.28;;;1.00;;
2928;SDS011;1474;51.460;7.150;2023-03-24T14:25:22;2.72;;;0.80;;
2928;SDS011;1474;51.460;7.150;2023-03-24T14:27:52;2.47;;;0.75;;
2928;SDS011;1474;51.460;7.150;2023-03-24T14:30:38;3.92;;;0.80;;
2928;SDS011;1474;51.460;7.150;2023-03-24T14:33:56;7.65;;;0.88;;
2928;SDS011;1474;51.460;7.150;2023-03-24T14:39:20;5.13;;;0.77;;
2928;SDS011;1474;51.460;7.150;2023-03-24T14:41:54;3.03;;;1.05;;
2928;SDS011;1474;51.460;7.150;2023-03-24T14:49:40;2.45;;;0.93;;
2928;SDS011;1474;51.460;7.150;2023-03-24T14:54:52;3.72;;;0.90;;
2928;SDS011;1474;51.460;7.150;2023-03-24T14:57:24;2.50;;;0.95;;
2928;SDS011;1474;51.460;7.150;2023-03-24T15:02:43;4.55;;;1.08;;
2928;SDS011;1474;51.460;7.150;2023-03-24T15:08:12;1.92;;;1.73;;
2928;SDS011;1474;51.460;7.150;2023-03-24T15:13:29;3.58;;;1.52;;
2928;SDS011;1474;51.460;7.150;2023-03-24T15:15:56;5.82;;;1.00;;
2928;SDS011;1474;51.460;7.150;2023-03-24T15:18:22;1.90;;;1.02;;
2928;SDS011;1474;51.460;7.150;2023-03-24T15:20:50;2.95;;;0.88;;
2928;SDS011;1474;51.460;7.150;2023-03-24T15:23:17;2.05;;;1.00;;
2928;SDS011;1474;51.460;7.150;2023-03-24T15:25:48;1.02;;;0.77;;
2928;SDS011;1474;51.460;7.150;2023-03-24T15:28:19;3.75;;;1.13;;
2928;SDS011;1474;51.460;7.150;2023-03-24T15:30:55;5.18;;;1.05;;
2928;SDS011;1474;51.460;7.150;2023-03-24T15:33:23;2.83;;;0.93;;
2928;SDS011;1474;51.460;7.150;2023-03-24T15:35:59;2.35;;;0.80;;
2928;SDS011;1474;51.460;7.150;2023-03-24T15:38:30;1.05;;;0.70;;
2928;SDS011;1474;51.460;7.150;2023-03-24T15:41:03;6.45;;;1.10;;
2928;SDS011;1474;51.460;7.150;2023-03-24T15:43:39;3.33;;;0.90;;
2928;SDS011;1474;51.460;7.150;2023-03-24T15:46:18;2.25;;;0.88;;
2928;SDS011;1474;51.460;7.150;2023-03-24T15:51:17;2.45;;;0.90;;
2928;SDS011;1474;51.460;7.150;2023-03-24T15:53:47;1.40;;;0.63;;
2928;SDS011;1474;51.460;7.150;2023-03-24T15:58:53;0.90;;;0.63;;
2928;SDS011;1474;51.460;7.150;2023-03-24T16:01:23;2.40;;;0.63;;
2928;SDS011;1474;51.460;7.150;2023-03-24T16:03:51;4.60;;;1.05;;
2928;SDS011;1474;51.460;7.150;2023-03-24T16:06:28;2.53;;;1.13;;
2928;SDS011;1474;51.460;7.150;2023-03-24T16:09:11;3.45;;;0.82;;
2928;SDS011;1474;51.460;7.150;2023-03-24T16:11:39;3.50;;;0.63;;
2928;SDS011;1474;51.460;7.150;2023-03-24T16:14:13;2.92;;;0.73;;
2928;SDS011;1474;51.460;7.150;2023-03-24T16:16:43;0.60;;;0.50;;
2928;SDS011;1474;51.460;7.150;2023-03-24T16:19:09;1.52;;;0.52;;
2928;SDS011;1474;51.460;7.150;2023-03-24T16:21:34;2.05;;;0.50;;
2928;SDS011;1474;51.460;7.150;2023-03-24T16:24:00;2.88;;;0.68;;
2928;SDS011;1474;51.460;7.150;2023-03-24T16:26:27;2.40;;;0.50;;
2928;SDS011;1474;51.460;7.150;2023-03-24T16:28:54;1.42;;;0.95;;
2928;SDS011;1474;51.460;7.150;2023-03-24T16:31:31;1.88;;;0.40;;
2928;SDS011;1474;51.460;7.150;2023-03-24T16:34:00;0.43;;;0.30;;
2928;SDS011;1474;51.460;7.150;2023-03-24T16:36:26;0.80;;;0.50;;
2928;SDS011;1474;51.460;7.150;2023-03-24T16:38:52;0.40;;;0.40;;
2928;SDS011;1474;51.460;7.150;2023-03-24T16:41:19;4.60;;;0.80;;
2928;SDS011;1474;51.460;7.150;2023-03-24T16:43:45;1.13;;;0.40;;
2928;SDS011;1474;51.460;7.150;2023-03-24T16:46:15;0.85;;;0.70;;
2928;SDS011;1474;51.460;7.150;2023-03-24T16:48:44;0.80;;;0.60;;
2928;SDS011;1474;51.460;7.150;2023-03-24T16:51:11;1.05;;;0.52;;
2928;SDS011;1474;51.460;7.150;2023-03-24T16:53:38;0.70;;;0.50;;
2928;SDS011;1474;51.460;7.150;2023-03-24T16:56:05;1.70;;;0.68;;
2928;SDS011;1474;51.460;7.150;2023-03-24T16:58:31;0.93;;;0.50;;
2928;SDS011;1474;51.460;7.150;2023-03-24T17:00:57;0.90;;;0.20;;
2928;SDS011;1474;51.460;7.150;2023-03-24T17:03:23;1.98;;;0.60;;
2928;SDS011;1474;51.460;7.150;2023-03-24T17:05:53;1.23;;;0.55;;
2928;SDS011;1474;51.460;7.150;2023-03-24T17:08:20;0.40;;;0.40;;
2928;SDS011;1474;51.460;7.150;2023-03-24T17:10:47;0.70;;;0.45;;
2928;SDS011;1474;51.460;7.150;2023-03-24T17:13:16;0.90;;;0.50;;
2928;SDS011;1474;51.460;7.150;2023-03-24T17:15:44;0.30;;;0.30;;
2928;SDS011;1474;51.460;7.150;2023-03-24T17:18:10;1.58;;;1.17;;
2928;SDS011;1474;51.460;7.150;2023-03-24T17:20:35;2.00;;;0.88;;
2928;SDS011;1474;51.460;7.150;2023-03-24T17:23:04;0.38;;;0.30;;
2928;SDS011;1474;51.460;7.150;2023-03-24T17:25:31;2.65;;;0.90;;
2928;SDS011;1474;51.460;7.150;2023-03-24T17:27:57;3.53;;;0.40;;
2928;SDS011;1474;51.460;7.150;2023-03-24T17:30:23;0.80;;;0.40;;
2928;SDS011;1474;51.460;7.150;2023-03-24T17:32:51;1.67;;;0.30;;
2928;SDS011;1474;51.460;7.150;2023-03-24T17:35:19;2.00;;;0.55;;
2928;SDS011;1474;51.460;7.150;2023-03-24T17:37:46;1.38;;;0.47;;
2928;SDS011;1474;51.460;7.150;2023-03-24T17:40:13;2.72;;;0.70;;
2928;SDS011;1474;51.460;7.150;2023-03-24T17:42:41;0.40;;;0.40;;
2928;SDS011;1474;51.460;7.150;2023-03-24T17:45:08;1.60;;;0.75;;
2928;SDS011;1474;51.460;7.150;2023-03-24T17:47:44;0.47;;;0.40;;
2928;SDS011;1474;51.460;7.150;2023-03-24T17:50:11;1.08;;;0.40;;
2928;SDS011;1474;51.460;7.150;2023-03-24T17:52:38;1.88;;;0.75;;
2928;SDS011;1474;51.460;7.150;2023-03-24T17:55:07;0.68;;;0.40;;
2928;SDS011;1474;51.460;7.150;2023-03-24T17:57:35;2.72;;;0.85;;
2928;SDS011;1474;51.460;7.150;2023-03-24T18:00:00;2.33;;;0.65;;
2928;SDS011;1474;51.460;7.150;2023-03-24T18:02:29;0.90;;;0.30;;
2928;SDS011;1474;51.460;7.150;2023-03-24T18:04:54;0.60;;;0.50;;
2928;SDS011;1474;51.460;7.150;2023-03-24T18:07:20;1.85;;;0.57;;
2928;SDS011;1474;51.460;7.150;2023-03-24T18:09:47;1.13;;;0.55;;
2928;SDS011;1474;51.460;7.150;2023-03-24T18:12:12;0.57;;;0.57;;
2928;SDS011;1474;51.460;7.150;2023-03-24T18:14:38;0.65;;;0.52;;
2928;SDS011;1474;51.460;7.150;2023-03-24T18:17:04;5.40;;;1.40;;
2928;SDS011;1474;51.460;7.150;2023-03-24T18:19:31;0.55;;;0.40;;
2928;SDS011;1474;51.460;7.150;2023-03-24T18:21:56;1.00;;;0.40;;
2928;SDS011;1474;51.460;7.150;2023-03-24T18:24:22;1.10;;;0.57;;
2928;SDS011;1474;51.460;7.150;2023-03-24T18:26:49;0.95;;;0.50;;